createdAt,value
2018-06-11T06:42:25.893Z,24.70
2018-06-11T06:44:54.108Z,24.80
2018-06-11T06:47:22.392Z,24.70
2018-06-11T06:49:50.569Z,24.60
2018-06-11T06:52:18.777Z,24.40
2018-06-11T06:54:46.961Z,24.40
2018-06-11T06:57:15.145Z,24.40
2018-06-11T06:59:43.316Z,24.50
2018-06-11T07:02:11.500Z,24.50
2018-06-11T07:04:39.696Z,24.60
2018-06-11T07:07:07.909Z,24.60
2018-06-11T07:09:36.126Z,24.70
2018-06-11T07:12:04.264Z,24.90
2018-06-11T07:14:32.445Z,25.10
2018-06-11T07:17:01.281Z,25.30
2018-06-11T07:19:29.453Z,25.40
2018-06-11T07:21:57.679Z,25.50
2018-06-11T07:24:25.851Z,25.60
2018-06-11T07:26:54.146Z,25.70
2018-06-11T07:29:22.333Z,25.70
2018-06-11T07:31:50.508Z,25.80
2018-06-11T07:34:18.793Z,25.90
2018-06-11T07:36:46.964Z,26.10
2018-06-11T07:39:15.136Z,26.30
2018-06-11T07:41:43.313Z,26.30
2018-06-11T07:44:11.492Z,26.30
2018-06-11T07:46:39.682Z,26.40
2018-06-11T07:54:03.772Z,26.60
2018-06-11T07:56:31.970Z,26.70
2018-06-11T07:59:00.153Z,26.80
2018-06-11T08:01:28.376Z,27.00
2018-06-11T08:03:56.512Z,27.00
2018-06-11T08:06:24.693Z,26.90
2018-06-11T08:08:52.878Z,27.00
2018-06-11T08:11:21.049Z,27.10
2018-06-11T08:13:49.225Z,27.20
2018-06-11T08:16:17.409Z,27.30
2018-06-11T08:18:45.587Z,27.30
2018-06-11T08:21:13.756Z,27.30
2018-06-11T08:23:41.932Z,27.30
2018-06-11T08:26:10.112Z,27.30
2018-06-11T08:28:38.295Z,27.50
2018-06-11T08:31:06.514Z,27.60
2018-06-11T08:33:34.689Z,27.80
2018-06-11T08:36:02.905Z,27.90
2018-06-11T08:38:31.074Z,27.90
2018-06-11T08:40:59.263Z,27.90
2018-06-11T08:43:27.436Z,28.00
2018-06-11T08:45:55.617Z,28.10
2018-06-11T08:48:23.795Z,27.90
2018-06-11T08:50:52.044Z,27.80
2018-06-11T08:53:21.237Z,28.00
2018-06-11T08:55:49.417Z,28.10
2018-06-11T08:58:17.604Z,28.20
2018-06-11T09:00:45.789Z,28.00
2018-06-11T09:03:13.972Z,28.20
2018-06-11T09:05:42.149Z,28.40
2018-06-11T09:08:10.333Z,28.50
2018-06-11T09:10:38.537Z,28.50
2018-06-11T09:13:06.708Z,28.40
2018-06-11T09:15:34.880Z,28.40
2018-06-11T09:18:03.115Z,28.60
2018-06-11T09:20:31.249Z,28.70
2018-06-11T09:22:59.429Z,28.90
2018-06-11T09:25:27.609Z,28.80
2018-06-11T09:27:55.804Z,28.70
2018-06-11T09:30:24.077Z,28.70
2018-06-11T09:32:53.265Z,28.50
2018-06-11T09:35:21.455Z,28.50
2018-06-11T09:37:49.637Z,28.40
2018-06-11T09:40:17.817Z,28.30
2018-06-11T09:42:46.009Z,28.00
2018-06-11T09:45:14.192Z,28.10
2018-06-11T09:47:42.376Z,28.20
2018-06-11T09:50:10.552Z,28.30
2018-06-11T09:52:38.732Z,28.50
2018-06-11T09:55:06.912Z,28.70
2018-06-11T09:57:35.097Z,28.90
2018-06-11T10:00:03.292Z,29.10
2018-06-11T10:02:31.468Z,29.00
2018-06-11T10:04:59.643Z,29.00
2018-06-11T10:07:27.833Z,29.30
2018-06-11T10:09:56.110Z,29.30
2018-06-11T10:12:24.330Z,29.40
2018-06-11T10:14:52.473Z,29.30
2018-06-11T10:17:20.652Z,29.40
2018-06-11T10:19:48.824Z,29.50
2018-06-11T10:22:17.012Z,29.60
2018-06-11T10:24:45.231Z,29.60
2018-06-11T10:27:13.437Z,29.70
2018-06-11T10:29:41.623Z,29.80
2018-06-11T10:32:09.810Z,30.00
2018-06-11T10:34:37.983Z,30.10
2018-06-11T10:37:06.245Z,30.30
2018-06-11T10:39:34.425Z,30.40
2018-06-11T10:42:02.592Z,30.50
2018-06-11T10:44:30.967Z,30.40
2018-06-11T10:46:59.128Z,30.10
2018-06-11T10:49:27.303Z,30.20
2018-06-11T10:51:55.485Z,30.40
2018-06-11T10:54:23.648Z,30.40
2018-06-11T10:56:51.824Z,30.70
2018-06-11T10:59:19.997Z,30.90
2018-06-11T11:01:48.172Z,30.80
2018-06-11T11:04:16.465Z,30.70
2018-06-11T11:06:44.642Z,30.80
2018-06-11T11:09:12.821Z,30.90
2018-06-11T11:11:42.061Z,30.70
2018-06-11T11:14:10.243Z,30.30
2018-06-11T11:16:38.428Z,30.10
2018-06-11T11:19:06.633Z,30.20
2018-06-11T11:21:34.813Z,30.40
2018-06-11T11:24:03.008Z,30.50
2018-06-11T11:26:31.177Z,30.70
2018-06-11T11:28:59.365Z,30.60
2018-06-11T11:31:27.540Z,30.60
2018-06-11T11:33:55.712Z,30.80
2018-06-11T11:36:23.890Z,30.90
2018-06-11T11:38:52.067Z,30.80
2018-06-11T11:41:20.256Z,30.60
2018-06-11T11:43:48.429Z,30.40
2018-06-11T11:46:16.621Z,30.10
2018-06-11T11:48:44.829Z,29.90
2018-06-11T11:51:13.055Z,29.80
2018-06-11T11:53:41.193Z,29.70
2018-06-11T11:56:09.389Z,30.00
2018-06-11T11:58:37.581Z,30.10
2018-06-11T12:01:05.788Z,30.10
2018-06-11T12:03:33.969Z,30.00
2018-06-11T12:06:02.145Z,30.00
2018-06-11T12:10:58.296Z,30.10
2018-06-11T12:13:26.469Z,30.20
2018-06-11T12:15:54.665Z,30.30
2018-06-11T12:18:22.943Z,30.40
2018-06-11T12:20:51.112Z,30.20
2018-06-11T12:23:19.287Z,30.10
2018-06-11T12:25:47.453Z,30.10
2018-06-11T12:28:15.627Z,29.90
2018-06-11T12:30:43.804Z,29.80
2018-06-11T12:33:11.980Z,29.70
2018-06-11T12:35:40.161Z,29.60
2018-06-11T12:38:08.344Z,29.70
2018-06-11T12:40:36.524Z,29.60
2018-06-11T12:43:04.700Z,29.60
2018-06-11T12:45:32.887Z,29.80
2018-06-11T12:48:01.060Z,30.20
2018-06-11T12:50:29.241Z,30.70
2018-06-11T12:52:57.493Z,31.00
2018-06-11T12:55:25.669Z,31.10
2018-06-11T12:57:53.845Z,31.00
2018-06-11T13:00:22.020Z,30.80
2018-06-11T13:02:50.199Z,30.40
2018-06-11T13:05:18.400Z,30.00
2018-06-11T13:07:46.571Z,29.70
2018-06-11T13:10:14.781Z,29.50
2018-06-11T13:15:10.981Z,29.20
2018-06-11T13:17:39.165Z,29.10
2018-06-11T13:20:07.336Z,29.00
2018-06-11T13:22:35.609Z,28.80
2018-06-11T13:25:03.793Z,28.70
2018-06-11T13:27:31.959Z,28.50
2018-06-11T13:30:00.152Z,28.40
2018-06-11T13:32:28.334Z,28.20
2018-06-11T13:34:56.508Z,27.90
2018-06-11T13:37:24.713Z,27.70
2018-06-11T13:39:52.885Z,27.70
2018-06-11T13:42:21.064Z,27.50
2018-06-11T13:44:49.256Z,27.30
2018-06-11T13:47:17.535Z,27.10
2018-06-11T13:49:45.723Z,27.00
2018-06-11T13:52:13.916Z,26.80
2018-06-11T13:54:42.096Z,26.70
2018-06-11T13:57:10.268Z,26.60
2018-06-11T13:59:38.450Z,26.60
2018-06-11T14:02:06.648Z,26.60
2018-06-11T14:04:34.903Z,26.50
2018-06-11T14:07:03.105Z,26.60
2018-06-11T14:09:31.281Z,26.60
2018-06-11T14:11:59.480Z,26.70
2018-06-11T14:14:27.656Z,26.90
2018-06-11T14:16:55.838Z,27.10
2018-06-11T14:19:24.030Z,27.50
2018-06-11T14:21:52.203Z,27.80
2018-06-11T14:24:20.464Z,28.10
2018-06-11T14:26:48.812Z,28.20
2018-06-11T14:29:16.998Z,28.40
2018-06-11T14:31:45.180Z,28.60
2018-06-11T14:34:13.363Z,28.80
2018-06-11T14:36:41.546Z,29.10
2018-06-11T14:39:09.724Z,29.30
2018-06-11T14:41:37.912Z,29.40
2018-06-11T14:44:06.089Z,29.40
2018-06-11T14:46:34.264Z,29.30
2018-06-11T14:49:02.447Z,29.30
2018-06-11T14:51:30.625Z,29.30
2018-06-11T14:53:58.800Z,29.10
2018-06-11T14:56:27.009Z,29.10
2018-06-11T14:58:55.192Z,28.90
2018-06-11T15:01:23.404Z,28.60
2018-06-11T15:03:51.596Z,28.40
2018-06-11T15:06:19.774Z,28.20
2018-06-11T15:08:47.944Z,27.90
2018-06-11T15:11:16.149Z,27.70
2018-06-11T15:13:44.320Z,27.50
2018-06-11T15:16:12.496Z,27.20
2018-06-11T15:18:40.680Z,27.00
2018-06-11T15:21:08.858Z,26.80
2018-06-11T15:23:37.097Z,26.60
2018-06-11T15:26:05.225Z,26.50
2018-06-11T15:28:33.413Z,26.40
2018-06-11T15:31:01.602Z,26.30
2018-06-11T15:33:29.787Z,26.20
2018-06-11T15:35:57.968Z,26.00
2018-06-11T15:38:26.153Z,26.00
2018-06-11T15:40:54.344Z,25.90
2018-06-11T15:43:22.516Z,25.80
2018-06-11T15:45:50.697Z,25.80
2018-06-11T15:48:18.882Z,25.90
2018-06-11T15:50:47.061Z,26.00
2018-06-11T15:53:15.272Z,26.10
2018-06-11T15:55:43.456Z,26.30
2018-06-11T15:58:11.632Z,26.40
2018-06-11T16:00:39.924Z,26.40
2018-06-11T16:03:08.078Z,26.50
2018-06-11T16:05:36.254Z,26.50
2018-06-11T16:08:04.432Z,26.60
2018-06-11T16:10:32.710Z,26.60
2018-06-11T16:13:00.876Z,26.60
2018-06-11T16:15:29.059Z,26.60
2018-06-11T16:17:57.241Z,26.40
2018-06-11T16:20:25.513Z,26.20
2018-06-11T16:22:53.684Z,26.00
2018-06-11T16:25:21.853Z,25.90
2018-06-11T16:27:50.025Z,25.80
2018-06-11T16:30:18.210Z,25.60
2018-06-11T16:32:46.399Z,25.60
2018-06-11T16:35:14.568Z,25.50
2018-06-11T16:37:42.744Z,25.40
2018-06-11T16:40:10.933Z,25.40
2018-06-11T16:42:39.189Z,25.20
2018-06-11T16:45:07.365Z,25.10
2018-06-11T16:47:35.544Z,24.80
2018-06-11T16:50:03.745Z,24.60
2018-06-11T16:52:31.925Z,24.40
2018-06-11T16:55:00.092Z,24.30
2018-06-11T16:57:28.274Z,24.20
2018-06-11T16:59:56.449Z,24.10
2018-06-11T17:02:24.624Z,23.90
2018-06-11T17:04:52.796Z,23.70
2018-06-11T17:07:21.618Z,23.60
2018-06-11T17:12:18.498Z,23.40
2018-06-11T17:14:46.731Z,23.40
2018-06-11T17:17:14.849Z,23.30
2018-06-11T17:19:43.028Z,23.30
2018-06-11T17:22:11.214Z,23.30
2018-06-11T17:24:39.400Z,23.20
2018-06-11T17:27:07.580Z,23.10
2018-06-11T17:29:35.769Z,23.10
2018-06-11T17:32:03.944Z,23.10
2018-06-11T17:34:32.188Z,23.10
2018-06-11T17:37:00.330Z,23.00
2018-06-11T17:39:28.508Z,23.00
2018-06-11T17:44:24.689Z,23.00
2018-06-11T17:46:52.954Z,22.90
2018-06-11T17:49:21.133Z,22.90
2018-06-11T17:51:49.316Z,22.80
2018-06-11T17:54:17.518Z,22.70
2018-06-11T17:56:45.672Z,22.50
2018-06-11T17:59:13.845Z,22.50
2018-06-11T18:01:42.022Z,22.50
2018-06-11T18:04:10.258Z,22.30
2018-06-11T18:06:38.389Z,22.20
2018-06-11T18:09:08.333Z,22.10
2018-06-11T18:11:36.897Z,22.00
2018-06-11T18:14:05.108Z,21.80
2018-06-11T18:16:33.286Z,21.80
2018-06-11T18:21:29.401Z,21.70
2018-06-11T18:23:57.585Z,21.60
2018-06-11T18:26:25.817Z,21.50
2018-06-11T18:28:53.949Z,21.40
2018-06-11T18:31:22.128Z,21.30
2018-06-11T18:36:18.269Z,21.20
2018-06-11T18:38:46.457Z,21.10
2018-06-11T18:41:14.674Z,21.00
2018-06-11T18:43:42.848Z,21.00
2018-06-11T18:46:11.024Z,21.00
2018-06-11T18:48:39.229Z,20.90
2018-06-11T18:51:07.404Z,20.80
2018-06-11T18:53:35.584Z,20.80
2018-06-11T18:56:03.853Z,20.80
2018-06-11T18:58:32.033Z,20.80
2018-06-11T19:01:00.241Z,20.70
2018-06-11T19:03:28.431Z,20.70
2018-06-11T19:05:56.596Z,20.60
2018-06-11T19:08:24.768Z,20.60
2018-06-11T19:10:52.969Z,20.60
2018-06-11T19:13:21.140Z,20.50
2018-06-11T19:15:49.325Z,20.50
2018-06-11T19:18:17.501Z,20.50
2018-06-11T19:20:45.679Z,20.50
2018-06-11T19:23:13.876Z,20.40
2018-06-11T19:25:42.066Z,20.30
2018-06-11T19:28:10.226Z,20.30
2018-06-11T19:30:38.410Z,20.20
2018-06-11T19:33:06.660Z,20.20
2018-06-11T19:35:34.801Z,20.20
2018-06-11T19:38:02.969Z,20.20
2018-06-11T19:40:31.148Z,20.20
2018-06-11T19:42:59.316Z,20.10
2018-06-11T19:45:27.505Z,20.10
2018-06-11T19:47:55.677Z,20.00
2018-06-11T19:50:23.861Z,20.00
2018-06-11T19:52:52.040Z,20.00
2018-06-11T19:55:20.216Z,20.00
2018-06-11T19:57:48.399Z,19.90
2018-06-11T20:00:16.572Z,19.90
2018-06-11T20:02:44.792Z,19.90
2018-06-11T20:05:12.949Z,19.80
2018-06-11T20:07:41.149Z,19.70
2018-06-11T20:10:09.331Z,19.70
2018-06-11T20:12:37.516Z,19.70
2018-06-11T20:15:05.694Z,19.60
2018-06-11T20:17:33.886Z,19.60
2018-06-11T20:20:02.068Z,19.60
2018-06-11T20:22:30.244Z,19.50
2018-06-11T20:24:58.429Z,19.50
2018-06-11T20:27:26.615Z,19.40
2018-06-11T20:29:54.798Z,19.40
2018-06-11T20:32:23.030Z,19.30
2018-06-11T20:34:51.166Z,19.30
2018-06-11T20:37:19.356Z,19.30
2018-06-11T20:39:47.524Z,19.20
2018-06-11T20:44:43.717Z,19.10
2018-06-11T20:47:11.889Z,19.10
2018-06-11T20:49:40.064Z,19.10
2018-06-11T20:52:08.232Z,19.10
2018-06-11T20:54:36.404Z,19.10
2018-06-11T20:57:04.724Z,19.10
2018-06-11T20:59:32.904Z,19.10
2018-06-11T21:02:01.100Z,19.10
2018-06-11T21:06:57.205Z,19.10
2018-06-11T21:09:25.392Z,19.10
2018-06-11T21:11:53.580Z,19.00
2018-06-11T21:14:21.756Z,19.00
2018-06-11T21:16:49.956Z,18.90
2018-06-11T21:21:46.109Z,18.80
2018-06-11T21:24:14.326Z,18.80
2018-06-11T21:26:42.453Z,18.80
2018-06-11T21:29:10.628Z,18.80
2018-06-11T21:31:38.801Z,18.80
2018-06-11T21:36:34.960Z,18.70
2018-06-11T21:39:03.204Z,18.70
2018-06-11T21:41:31.368Z,18.70
2018-06-11T21:43:59.543Z,18.70
2018-06-11T21:46:27.720Z,18.80
2018-06-11T21:48:55.896Z,18.80
2018-06-11T21:51:24.080Z,18.80
2018-06-11T21:53:52.253Z,18.80
2018-06-11T21:56:20.416Z,18.80
2018-06-11T21:58:48.641Z,18.90
2018-06-11T22:01:16.806Z,18.90
2018-06-11T22:03:45.031Z,18.90
2018-06-11T22:06:13.157Z,18.90
2018-06-11T22:08:41.328Z,18.90
2018-06-11T22:11:09.526Z,18.90
2018-06-11T22:13:37.696Z,18.80
2018-06-11T22:16:05.868Z,18.80
2018-06-11T22:18:34.043Z,18.80
2018-06-11T22:21:02.309Z,18.70
2018-06-11T22:23:30.482Z,18.60
2018-06-11T22:25:58.665Z,18.50
2018-06-11T22:28:26.844Z,18.50
2018-06-11T22:30:55.020Z,18.40
2018-06-11T22:33:23.237Z,18.40
2018-06-11T22:35:51.420Z,18.40
2018-06-11T22:38:19.602Z,18.40
2018-06-11T22:40:47.773Z,18.30
2018-06-11T22:43:15.944Z,18.30
2018-06-11T22:45:44.120Z,18.40
2018-06-11T22:48:12.296Z,18.30
2018-06-11T22:50:40.460Z,18.30
2018-06-11T22:53:08.641Z,18.20
2018-06-11T22:55:36.820Z,18.20
2018-06-11T22:58:04.998Z,18.10
2018-06-11T23:00:34.416Z,18.10
2018-06-11T23:05:30.538Z,18.00
2018-06-11T23:07:58.745Z,17.90
2018-06-11T23:10:26.924Z,17.90
2018-06-11T23:12:55.103Z,17.90
2018-06-11T23:15:23.285Z,17.80
2018-06-11T23:17:51.456Z,17.80
2018-06-11T23:20:19.629Z,17.80
2018-06-11T23:22:47.801Z,17.70
2018-06-11T23:25:15.997Z,17.80
2018-06-11T23:27:44.165Z,17.80
2018-06-11T23:30:12.342Z,17.70
2018-06-11T23:32:40.520Z,17.70
2018-06-11T23:35:08.792Z,17.60
2018-06-11T23:37:36.952Z,17.60
2018-06-11T23:40:05.189Z,17.60
2018-06-11T23:42:33.388Z,17.60
2018-06-11T23:45:01.564Z,17.50
2018-06-11T23:47:29.737Z,17.50
2018-06-11T23:49:57.908Z,17.40
2018-06-11T23:52:26.088Z,17.40
2018-06-11T23:54:54.262Z,17.30
2018-06-11T23:57:22.435Z,17.20
2018-06-11T23:59:50.604Z,17.20
